Monroe, Nebraska
Current Conditions -  °F | °C
As of 6:55 PM on Monday 26 Jan 2015 (Local Time) from KOLU Reporting Station
Clear Clear  
Wind Chill: 34°   Ceiling: Unl
Heat Index: 37°   Visibility: 10mi
Dew Point: 27°   Wind: 5mph
Humidity: 65%   Direction: 340°NNW
Pressure: 30.03"   Gusts: NA
Location:  41.47°N, 97.6°W
Report Text: KOLU 270055Z AUTO 34004KT 10SM CLR 03/M03 A3003 RMK AO1
Loading
Personal Weather Stations






























Interactive Weather Map New forecast layout! Learn more

10-Day Weather Forecast

Advertisements
Track Severe Weather on mobile